createdAt,value
2017-09-29T00:01:24.614Z,37.20
2017-09-29T00:03:54.986Z,30.37
2017-09-29T00:06:25.280Z,31.00
2017-09-29T00:08:55.517Z,31.93
2017-09-29T00:11:25.879Z,34.27
2017-09-29T00:13:56.241Z,37.47
2017-09-29T00:16:26.565Z,33.57
2017-09-29T00:18:56.736Z,38.00
2017-09-29T00:21:26.871Z,34.10
2017-09-29T00:23:57.384Z,34.40
2017-09-29T00:26:27.804Z,34.80
2017-09-29T00:28:58.338Z,35.73
2017-09-29T00:31:29.327Z,41.77
2017-09-29T00:33:59.600Z,32.00
2017-09-29T00:36:30.670Z,33.50
2017-09-29T00:39:05.798Z,30.80
2017-09-29T00:41:36.165Z,38.00
2017-09-29T00:44:06.761Z,34.93
2017-09-29T00:46:36.967Z,33.37
2017-09-29T00:49:08.123Z,44.47
2017-09-29T00:51:38.276Z,43.17
2017-09-29T00:54:08.569Z,38.87
2017-09-29T00:56:38.875Z,47.10
2017-09-29T00:59:09.337Z,35.20
2017-09-29T01:01:39.807Z,43.37
2017-09-29T01:04:10.152Z,34.20
2017-09-29T01:06:40.547Z,37.80
2017-09-29T01:09:11.036Z,33.63
2017-09-29T01:11:41.337Z,40.83
2017-09-29T01:14:11.648Z,36.73
2017-09-29T01:16:42.927Z,41.07
2017-09-29T01:19:13.680Z,44.60
2017-09-29T01:21:44.007Z,40.80
2017-09-29T01:24:14.462Z,41.20
2017-09-29T01:26:44.805Z,34.77
2017-09-29T01:29:15.392Z,38.43
2017-09-29T01:31:45.822Z,38.90
2017-09-29T01:34:16.932Z,43.27
2017-09-29T01:36:47.512Z,41.20
2017-09-29T01:39:17.841Z,39.80
2017-09-29T01:41:48.401Z,41.80
2017-09-29T01:44:18.927Z,36.57
2017-09-29T01:46:49.363Z,39.17
2017-09-29T01:49:19.732Z,37.53
2017-09-29T01:51:50.935Z,41.70
2017-09-29T01:54:21.390Z,43.93
2017-09-29T01:56:52.013Z,39.30
2017-09-29T01:59:22.456Z,36.00
2017-09-29T02:01:53.593Z,38.27
2017-09-29T02:04:23.870Z,37.77
2017-09-29T02:06:54.252Z,36.80
2017-09-29T02:09:25.480Z,38.87
2017-09-29T02:11:56.029Z,38.60
2017-09-29T02:14:26.498Z,38.73
2017-09-29T02:16:56.837Z,39.23
2017-09-29T02:19:27.298Z,36.23
2017-09-29T02:21:58.541Z,37.60
2017-09-29T02:24:29.092Z,43.10
2017-09-29T02:26:59.700Z,48.60
2017-09-29T02:29:30.008Z,40.37
2017-09-29T02:32:00.395Z,40.50
2017-09-29T02:34:30.978Z,44.07
2017-09-29T02:37:01.542Z,36.73
2017-09-29T02:39:32.088Z,42.70
2017-09-29T02:42:02.640Z,44.87
2017-09-29T02:44:33.295Z,46.27
2017-09-29T02:47:03.824Z,36.17
2017-09-29T02:49:34.517Z,44.33
2017-09-29T02:52:04.939Z,48.83
2017-09-29T02:54:35.272Z,48.17
2017-09-29T02:57:14.248Z,40.97
2017-09-29T02:59:56.159Z,46.37
2017-09-29T03:02:33.199Z,43.70
2017-09-29T03:05:08.345Z,45.87
2017-09-29T03:07:39.871Z,46.10
2017-09-29T03:10:10.159Z,46.37
2017-09-29T03:12:40.581Z,46.60
2017-09-29T03:15:11.743Z,41.47
2017-09-29T03:17:41.974Z,45.50
2017-09-29T03:20:12.386Z,43.33
2017-09-29T03:22:43.402Z,41.93
2017-09-29T03:25:14.424Z,43.03
2017-09-29T03:27:44.752Z,47.07
2017-09-29T03:30:15.099Z,46.90
2017-09-29T03:32:46.109Z,45.43
2017-09-29T03:35:16.372Z,42.60
2017-09-29T03:37:47.449Z,45.33
2017-09-29T03:40:17.851Z,43.80
2017-09-29T03:42:49.096Z,39.67
2017-09-29T03:45:19.623Z,42.10
2017-09-29T03:47:50.070Z,52.03
2017-09-29T03:50:25.344Z,41.40
2017-09-29T03:53:00.352Z,42.07
2017-09-29T03:55:37.889Z,42.60
2017-09-29T03:58:13.136Z,49.10
2017-09-29T04:00:44.725Z,45.17
2017-09-29T04:03:15.127Z,46.00
2017-09-29T04:05:46.160Z,50.90
2017-09-29T04:08:16.680Z,45.10
2017-09-29T04:10:47.117Z,43.80
2017-09-29T04:13:17.442Z,45.37
2017-09-29T04:15:48.631Z,45.03
2017-09-29T04:18:18.962Z,46.53
2017-09-29T04:20:49.458Z,47.37
2017-09-29T04:23:19.801Z,50.30
2017-09-29T04:25:50.971Z,42.47
2017-09-29T04:28:21.046Z,42.43
2017-09-29T04:30:51.352Z,45.27
2017-09-29T04:33:22.339Z,42.60
2017-09-29T04:35:52.622Z,46.90
2017-09-29T04:38:23.852Z,50.87
2017-09-29T04:40:54.355Z,39.20
2017-09-29T04:43:25.299Z,39.50
2017-09-29T04:45:55.573Z,43.77
2017-09-29T04:48:25.860Z,46.20
2017-09-29T04:50:56.191Z,37.73
2017-09-29T04:53:27.206Z,44.57
2017-09-29T04:55:57.546Z,38.17
2017-09-29T04:58:27.991Z,48.17
2017-09-29T05:00:58.966Z,43.10
2017-09-29T05:03:29.096Z,41.00
2017-09-29T05:05:59.416Z,41.40
2017-09-29T05:08:29.753Z,37.40
2017-09-29T05:11:00.166Z,39.50
2017-09-29T05:13:30.464Z,43.67
2017-09-29T05:16:00.873Z,48.43
2017-09-29T05:18:31.956Z,60.10
2017-09-29T05:21:02.702Z,88.77
2017-09-29T05:23:33.896Z,80.47
2017-09-29T05:26:04.239Z,95.57
2017-09-29T05:28:34.759Z,95.40
2017-09-29T05:31:05.793Z,93.03
2017-09-29T05:33:36.164Z,83.73
2017-09-29T05:36:06.250Z,85.17
2017-09-29T05:38:36.597Z,81.50
2017-09-29T05:41:07.062Z,73.90
2017-09-29T05:43:37.681Z,78.07
2017-09-29T05:46:07.909Z,65.93
2017-09-29T05:48:38.256Z,74.13
2017-09-29T05:51:08.665Z,67.63
2017-09-29T05:53:39.674Z,57.07
2017-09-29T05:56:09.722Z,63.33
2017-09-29T05:58:40.143Z,59.67
2017-09-29T06:01:10.432Z,46.67
2017-09-29T06:03:40.566Z,65.07
2017-09-29T06:06:10.830Z,49.43
2017-09-29T06:08:41.823Z,50.57
2017-09-29T06:11:12.377Z,50.93
2017-09-29T06:13:42.677Z,52.47
2017-09-29T06:16:13.021Z,44.77
2017-09-29T06:18:43.425Z,47.40
2017-09-29T06:21:13.853Z,48.13
2017-09-29T06:23:43.898Z,50.00
2017-09-29T06:26:13.996Z,41.67
2017-09-29T06:28:44.614Z,48.47
2017-09-29T06:31:14.873Z,43.40
2017-09-29T06:33:45.930Z,40.53
2017-09-29T06:36:16.360Z,46.90
2017-09-29T06:38:46.690Z,48.37
2017-09-29T06:41:17.280Z,46.27
2017-09-29T06:43:48.391Z,42.50
2017-09-29T06:46:18.713Z,42.10
2017-09-29T06:48:49.328Z,45.93
2017-09-29T06:51:19.505Z,46.40
2017-09-29T06:53:49.713Z,45.90
2017-09-29T06:56:21.605Z,45.00
2017-09-29T06:58:52.648Z,40.17
2017-09-29T07:01:22.959Z,51.97
2017-09-29T07:03:54.262Z,51.07
2017-09-29T07:06:24.602Z,49.30
2017-09-29T07:08:54.677Z,40.30
2017-09-29T07:11:25.650Z,47.30
2017-09-29T07:13:55.969Z,43.10
2017-09-29T07:16:26.175Z,48.70
2017-09-29T07:18:56.357Z,48.13
2017-09-29T07:21:26.976Z,43.33
2017-09-29T07:23:57.184Z,47.73
2017-09-29T07:26:38.825Z,45.73
2017-09-29T07:29:14.501Z,51.10
2017-09-29T07:31:47.478Z,45.20
2017-09-29T07:34:17.947Z,46.93
2017-09-29T07:36:48.361Z,48.10
2017-09-29T07:39:19.406Z,52.90
2017-09-29T07:41:49.922Z,47.77
2017-09-29T07:44:20.380Z,50.80
2017-09-29T07:46:51.540Z,48.63
2017-09-29T07:49:21.914Z,51.73
2017-09-29T07:51:52.915Z,51.50
2017-09-29T07:54:23.332Z,46.33
2017-09-29T07:56:53.516Z,52.90
2017-09-29T07:59:23.823Z,54.73
2017-09-29T08:01:53.882Z,47.63
2017-09-29T08:04:24.234Z,51.20
2017-09-29T08:06:54.529Z,49.63
2017-09-29T08:09:24.826Z,47.30
2017-09-29T08:11:55.071Z,46.00
2017-09-29T08:14:26.239Z,52.17
2017-09-29T08:16:56.448Z,43.90
2017-09-29T08:19:26.830Z,44.60
2017-09-29T08:21:57.064Z,51.67
2017-09-29T08:24:27.585Z,43.50
2017-09-29T08:26:57.949Z,49.43
2017-09-29T08:29:28.368Z,45.97
2017-09-29T08:31:58.701Z,45.53
2017-09-29T08:34:29.046Z,54.23
2017-09-29T08:36:59.446Z,53.53
2017-09-29T08:39:30.279Z,45.57
2017-09-29T08:42:00.609Z,43.33
2017-09-29T08:44:30.841Z,47.57
2017-09-29T08:47:00.980Z,46.70
2017-09-29T08:49:31.137Z,46.67
2017-09-29T08:52:01.494Z,47.50
2017-09-29T08:54:31.783Z,48.13
2017-09-29T08:57:02.115Z,42.93
2017-09-29T08:59:32.592Z,47.57
2017-09-29T09:02:02.884Z,45.63
2017-09-29T09:04:33.416Z,47.90
2017-09-29T09:07:04.512Z,49.93
2017-09-29T09:09:34.701Z,45.13
2017-09-29T09:12:04.862Z,45.93
2017-09-29T09:14:34.977Z,49.00
2017-09-29T09:17:05.493Z,50.60
2017-09-29T09:19:36.053Z,51.93
2017-09-29T09:22:06.515Z,46.77
2017-09-29T09:24:36.795Z,48.10
2017-09-29T09:27:07.156Z,48.20
2017-09-29T09:29:38.172Z,47.87
2017-09-29T09:32:08.459Z,54.20
2017-09-29T09:34:38.553Z,49.20
2017-09-29T09:37:08.720Z,49.77
2017-09-29T09:39:38.830Z,50.07
2017-09-29T09:42:09.145Z,56.83
2017-09-29T09:44:39.510Z,52.53
2017-09-29T09:47:09.796Z,51.90
2017-09-29T09:49:40.466Z,52.23
2017-09-29T09:52:11.596Z,45.90
2017-09-29T09:54:41.947Z,53.77
2017-09-29T09:57:12.259Z,50.30
2017-09-29T09:59:43.273Z,49.07
2017-09-29T10:02:14.414Z,53.80
2017-09-29T10:04:44.747Z,54.77
2017-09-29T10:07:16.682Z,59.00
2017-09-29T10:09:46.839Z,51.00
2017-09-29T10:12:17.119Z,46.47
2017-09-29T10:14:47.205Z,47.87
2017-09-29T10:17:17.424Z,47.73
2017-09-29T10:19:47.660Z,46.93
2017-09-29T10:22:18.013Z,46.03
2017-09-29T10:24:48.360Z,54.83
2017-09-29T10:27:18.571Z,44.77
2017-09-29T10:29:49.086Z,46.27
2017-09-29T10:32:19.256Z,47.63
2017-09-29T10:34:49.696Z,46.90
2017-09-29T10:37:19.892Z,56.97
2017-09-29T10:39:50.213Z,61.53
2017-09-29T10:42:20.546Z,52.30
2017-09-29T10:44:50.872Z,48.63
2017-09-29T10:47:21.323Z,55.63
2017-09-29T10:49:51.385Z,50.87
2017-09-29T10:52:21.518Z,53.70
2017-09-29T10:54:51.723Z,46.17
2017-09-29T10:57:21.987Z,44.90
2017-09-29T10:59:52.901Z,42.70
2017-09-29T11:02:23.363Z,44.73
2017-09-29T11:04:54.334Z,53.00
2017-09-29T11:07:24.787Z,46.43
2017-09-29T11:09:54.990Z,46.83
2017-09-29T11:12:24.931Z,51.70
2017-09-29T11:14:55.027Z,51.90
2017-09-29T11:17:25.335Z,44.27
2017-09-29T11:19:55.464Z,49.03
2017-09-29T11:22:25.722Z,46.13
2017-09-29T11:24:56.102Z,42.07
2017-09-29T11:27:26.194Z,44.70
2017-09-29T11:29:57.164Z,43.23
2017-09-29T11:32:27.630Z,48.50
2017-09-29T11:34:58.679Z,48.37
2017-09-29T11:37:29.788Z,40.70
2017-09-29T11:40:00.068Z,43.20
2017-09-29T11:42:30.527Z,45.10
2017-09-29T11:45:00.645Z,50.40
2017-09-29T11:47:30.960Z,43.53
2017-09-29T11:50:01.208Z,47.47
2017-09-29T11:52:31.491Z,42.40
2017-09-29T11:55:01.953Z,44.70
2017-09-29T11:57:32.289Z,43.70
2017-09-29T12:00:02.848Z,53.13
2017-09-29T12:02:33.309Z,45.07
2017-09-29T12:05:03.585Z,40.60
2017-09-29T12:07:33.940Z,44.13
2017-09-29T12:10:04.283Z,39.63
2017-09-29T12:12:34.463Z,42.43
2017-09-29T12:15:04.927Z,47.17
2017-09-29T12:17:35.262Z,40.33
2017-09-29T12:20:05.651Z,44.83
2017-09-29T12:22:36.107Z,46.50
2017-09-29T12:25:06.420Z,42.80
2017-09-29T12:27:36.632Z,49.87
2017-09-29T12:30:06.919Z,44.03
2017-09-29T12:32:37.238Z,49.90
2017-09-29T12:35:07.719Z,45.60
2017-09-29T12:37:38.042Z,45.17
2017-09-29T12:40:08.411Z,40.80
2017-09-29T12:42:38.881Z,38.73
2017-09-29T12:45:09.185Z,43.50
2017-09-29T12:47:39.549Z,45.93
2017-09-29T12:50:09.818Z,46.70
2017-09-29T12:52:39.993Z,43.73
2017-09-29T12:55:10.141Z,41.83
2017-09-29T12:57:40.599Z,48.90
2017-09-29T13:00:11.004Z,46.60
2017-09-29T13:02:42.911Z,44.20
2017-09-29T13:05:13.279Z,44.53
2017-09-29T13:07:43.527Z,44.70
2017-09-29T13:10:14.648Z,42.70
2017-09-29T13:12:45.101Z,45.30
2017-09-29T13:15:15.414Z,47.60
2017-09-29T13:17:45.694Z,49.10
2017-09-29T13:20:15.992Z,49.10
2017-09-29T13:22:47.962Z,42.47
2017-09-29T13:25:18.193Z,47.53
2017-09-29T13:27:48.482Z,49.90
2017-09-29T13:30:18.759Z,48.17
2017-09-29T13:32:49.220Z,45.60
2017-09-29T13:35:19.800Z,51.10
2017-09-29T13:37:50.219Z,43.40
2017-09-29T13:40:20.571Z,49.13
2017-09-29T13:42:50.864Z,49.27
2017-09-29T13:45:21.529Z,52.57
2017-09-29T13:47:51.834Z,42.83
2017-09-29T13:50:21.954Z,48.83
2017-09-29T13:52:52.260Z,45.33
2017-09-29T13:55:22.611Z,48.77
2017-09-29T13:57:52.931Z,96.77
2017-09-29T14:00:23.266Z,87.17
2017-09-29T14:02:53.676Z,149.53
2017-09-29T14:05:24.061Z,162.27
2017-09-29T14:07:55.074Z,184.53
2017-09-29T14:10:25.438Z,189.87
2017-09-29T14:12:55.842Z,173.80
2017-09-29T14:15:26.887Z,150.10
2017-09-29T14:17:57.209Z,151.33
2017-09-29T14:20:27.531Z,144.00
2017-09-29T14:22:57.968Z,143.30
2017-09-29T14:25:29.175Z,131.93
2017-09-29T14:28:00.547Z,130.17
2017-09-29T14:30:31.070Z,126.43
2017-09-29T14:33:02.327Z,105.70
2017-09-29T14:35:33.530Z,113.50
2017-09-29T14:38:04.050Z,99.70
2017-09-29T14:40:34.666Z,98.67
2017-09-29T14:43:05.802Z,86.53
2017-09-29T14:45:36.254Z,93.87
2017-09-29T14:48:06.395Z,90.57
2017-09-29T14:50:36.594Z,92.97
2017-09-29T14:53:06.862Z,80.73
2017-09-29T14:55:37.100Z,84.30
2017-09-29T14:58:08.028Z,82.13
2017-09-29T15:00:38.338Z,81.17
2017-09-29T15:03:09.460Z,77.13
2017-09-29T15:05:39.698Z,66.77
2017-09-29T15:08:10.301Z,67.47
2017-09-29T15:10:40.622Z,70.23
2017-09-29T15:13:10.753Z,71.80
2017-09-29T15:15:41.053Z,63.87
2017-09-29T15:18:11.517Z,68.33
2017-09-29T15:20:41.862Z,67.20
2017-09-29T15:23:12.259Z,58.13
2017-09-29T15:25:42.820Z,68.60
2017-09-29T15:28:13.077Z,64.17
2017-09-29T15:30:43.169Z,59.53
2017-09-29T15:33:14.311Z,62.50
2017-09-29T15:35:45.358Z,69.47
2017-09-29T15:38:15.769Z,58.23
2017-09-29T15:40:58.210Z,62.87
2017-09-29T15:43:30.577Z,65.90
2017-09-29T15:46:00.922Z,57.00
2017-09-29T15:48:31.080Z,62.40
2017-09-29T15:51:01.313Z,56.70
2017-09-29T15:53:32.467Z,59.67
2017-09-29T15:56:03.673Z,52.03
2017-09-29T15:58:33.955Z,53.00
2017-09-29T16:01:04.104Z,60.97
2017-09-29T16:03:34.555Z,56.50
2017-09-29T16:06:05.023Z,54.23
2017-09-29T16:08:35.337Z,59.90
2017-09-29T16:11:05.758Z,54.40
2017-09-29T16:13:36.800Z,57.73
2017-09-29T16:16:07.038Z,58.77
2017-09-29T16:18:37.354Z,62.90
2017-09-29T16:21:07.777Z,49.83
2017-09-29T16:23:38.184Z,55.83
2017-09-29T16:26:08.542Z,51.63
2017-09-29T16:28:38.720Z,54.73
2017-09-29T16:31:09.044Z,53.17
2017-09-29T16:33:39.430Z,58.53
2017-09-29T16:36:09.877Z,56.17
2017-09-29T16:38:40.364Z,51.67
2017-09-29T16:41:10.671Z,54.67
2017-09-29T16:43:41.053Z,54.90
2017-09-29T16:46:11.730Z,52.60
2017-09-29T16:48:42.358Z,51.40
2017-09-29T16:51:12.847Z,53.10
2017-09-29T16:53:43.361Z,58.20
2017-09-29T16:56:13.843Z,53.37
2017-09-29T16:58:44.438Z,55.90
2017-09-29T17:01:14.928Z,53.97
2017-09-29T17:03:45.471Z,53.00
2017-09-29T17:06:15.957Z,51.83
2017-09-29T17:08:47.338Z,49.07
2017-09-29T17:11:17.893Z,50.10
2017-09-29T17:13:48.643Z,54.63
2017-09-29T17:16:19.337Z,50.13
2017-09-29T17:18:50.315Z,56.03
2017-09-29T17:21:21.081Z,52.63
2017-09-29T17:23:51.864Z,56.03
2017-09-29T17:26:22.964Z,48.40
2017-09-29T17:28:53.888Z,50.30
2017-09-29T17:31:24.811Z,52.73
2017-09-29T17:33:55.757Z,48.00
2017-09-29T17:36:26.750Z,50.40
2017-09-29T17:38:57.734Z,47.20
2017-09-29T17:41:29.516Z,43.27
2017-09-29T17:44:00.293Z,45.20
2017-09-29T17:46:31.354Z,42.97
2017-09-29T17:49:02.520Z,44.80
2017-09-29T17:51:33.577Z,39.53
2017-09-29T17:54:05.128Z,39.00
2017-09-29T17:56:36.083Z,42.23
2017-09-29T17:59:08.121Z,43.10
2017-09-29T18:01:39.329Z,38.27
2017-09-29T18:04:10.499Z,36.57
2017-09-29T18:06:42.301Z,39.20
2017-09-29T18:09:13.553Z,34.90
2017-09-29T18:11:44.681Z,38.77
2017-09-29T18:14:15.631Z,34.30
2017-09-29T18:16:46.770Z,33.77
2017-09-29T18:19:17.907Z,37.80
2017-09-29T18:21:49.191Z,34.67
2017-09-29T18:24:20.305Z,34.00
2017-09-29T18:26:51.444Z,38.37
2017-09-29T18:29:22.768Z,38.07
2017-09-29T18:31:53.675Z,40.10
2017-09-29T18:34:24.725Z,37.13
2017-09-29T18:36:55.770Z,34.03
2017-09-29T18:39:27.601Z,32.90
2017-09-29T18:41:59.429Z,37.00
2017-09-29T18:44:30.375Z,33.20
2017-09-29T18:47:02.204Z,32.40
2017-09-29T18:49:33.271Z,35.13
2017-09-29T18:52:04.401Z,34.03
2017-09-29T18:54:35.405Z,41.90
2017-09-29T18:57:06.664Z,38.60
2017-09-29T18:59:39.073Z,36.70
2017-09-29T19:02:10.405Z,43.30
2017-09-29T19:04:41.298Z,41.93
2017-09-29T19:07:12.433Z,40.13
2017-09-29T19:09:44.363Z,35.27
2017-09-29T19:12:15.576Z,37.97
2017-09-29T19:14:46.633Z,41.83
2017-09-29T19:17:17.594Z,45.47
2017-09-29T19:19:48.572Z,39.57
2017-09-29T19:22:20.486Z,46.37
2017-09-29T19:24:51.478Z,40.27
2017-09-29T19:27:23.245Z,43.97
2017-09-29T19:29:54.366Z,35.50
2017-09-29T19:32:26.352Z,40.87
2017-09-29T19:34:57.416Z,40.40
2017-09-29T19:37:28.851Z,43.73
2017-09-29T19:39:59.938Z,45.00
2017-09-29T19:42:31.496Z,40.43
2017-09-29T19:45:03.290Z,48.87
2017-09-29T19:47:35.579Z,44.87
2017-09-29T19:50:06.589Z,47.17
2017-09-29T19:52:37.976Z,43.23
2017-09-29T19:55:09.288Z,45.90
2017-09-29T19:57:40.335Z,44.53
2017-09-29T20:00:12.103Z,43.37
2017-09-29T20:02:43.038Z,43.20
2017-09-29T20:05:14.019Z,43.37
2017-09-29T20:07:45.132Z,47.83
2017-09-29T20:10:16.187Z,41.60
2017-09-29T20:12:47.175Z,44.03
2017-09-29T20:15:19.138Z,43.57
2017-09-29T20:17:50.058Z,41.33
2017-09-29T20:20:21.886Z,42.00
2017-09-29T20:22:52.784Z,43.33
2017-09-29T20:25:24.618Z,43.63
2017-09-29T20:27:55.863Z,45.30
2017-09-29T20:30:27.001Z,40.47
2017-09-29T20:32:58.036Z,42.97
2017-09-29T20:35:29.259Z,40.93
2017-09-29T20:38:00.402Z,39.10
2017-09-29T20:40:31.610Z,42.30
2017-09-29T20:43:02.758Z,39.57
2017-09-29T20:45:33.765Z,37.33
2017-09-29T20:48:04.608Z,37.97
2017-09-29T20:50:37.084Z,38.77
2017-09-29T20:53:08.046Z,37.60
2017-09-29T20:55:39.585Z,39.53
2017-09-29T20:58:11.136Z,37.73
2017-09-29T21:00:42.502Z,38.57
2017-09-29T21:03:13.457Z,41.00
2017-09-29T21:05:44.276Z,40.20
2017-09-29T21:08:14.964Z,37.20
2017-09-29T21:10:45.448Z,37.87
2017-09-29T21:13:16.098Z,43.97
2017-09-29T21:15:46.952Z,39.63
2017-09-29T21:18:17.547Z,39.50
2017-09-29T21:20:47.816Z,55.60
2017-09-29T21:23:18.370Z,127.73
2017-09-29T21:25:48.690Z,144.67
2017-09-29T21:28:18.995Z,126.90
2017-09-29T21:30:49.457Z,113.83
2017-09-29T21:33:19.964Z,96.20
2017-09-29T21:35:50.513Z,84.13
2017-09-29T21:38:20.928Z,76.43
2017-09-29T21:40:52.205Z,69.40
2017-09-29T21:43:22.705Z,58.43
2017-09-29T21:45:52.982Z,54.53
2017-09-29T21:48:23.265Z,55.70
2017-09-29T21:50:54.438Z,50.67
2017-09-29T21:53:24.990Z,63.00
2017-09-29T21:55:55.187Z,47.17
2017-09-29T21:58:25.626Z,50.90
2017-09-29T22:00:55.876Z,44.00
2017-09-29T22:03:26.305Z,42.83
2017-09-29T22:05:56.691Z,40.23
2017-09-29T22:08:27.104Z,40.13
2017-09-29T22:10:57.828Z,43.30
2017-09-29T22:13:28.327Z,39.23
2017-09-29T22:15:59.401Z,38.20
2017-09-29T22:18:29.969Z,38.47
2017-09-29T22:21:00.405Z,38.03
2017-09-29T22:23:30.766Z,32.20
2017-09-29T22:26:01.048Z,33.87
2017-09-29T22:28:31.344Z,39.20
2017-09-29T22:31:01.752Z,33.57
2017-09-29T22:33:32.120Z,34.17
2017-09-29T22:36:02.518Z,36.97
2017-09-29T22:38:33.032Z,34.00
2017-09-29T22:41:03.621Z,36.60
2017-09-29T22:43:34.000Z,33.90
2017-09-29T22:46:04.484Z,33.57
2017-09-29T22:48:34.784Z,38.90
2017-09-29T22:51:05.141Z,34.53
2017-09-29T22:54:06.514Z,32.57
2017-09-29T22:56:36.744Z,32.37
2017-09-29T22:59:07.287Z,37.20
2017-09-29T23:01:37.595Z,36.83
2017-09-29T23:04:07.906Z,33.87
2017-09-29T23:06:38.519Z,29.27
2017-09-29T23:09:09.581Z,32.90
2017-09-29T23:11:39.820Z,32.93
2017-09-29T23:14:10.059Z,32.30
2017-09-29T23:16:40.581Z,34.50
2017-09-29T23:19:10.892Z,31.93
2017-09-29T23:21:41.405Z,34.33
2017-09-29T23:24:11.725Z,31.17
2017-09-29T23:26:42.813Z,35.27
2017-09-29T23:29:12.968Z,31.20
2017-09-29T23:31:43.305Z,29.10
2017-09-29T23:34:13.833Z,29.90
2017-09-29T23:36:44.790Z,28.83
2017-09-29T23:39:15.347Z,31.27
2017-09-29T23:41:45.623Z,30.50
2017-09-29T23:44:15.949Z,32.37
2017-09-29T23:46:47.014Z,30.53
2017-09-29T23:49:17.319Z,32.13
2017-09-29T23:51:47.733Z,28.90
2017-09-29T23:54:18.095Z,32.93
2017-09-29T23:56:48.816Z,30.77
2017-09-29T23:59:19.137Z,27.57
